X  Sluiten METAR luchtvaart weer gegevens      EBBR Brussels Airport
Temperatuur
9°C Temperatuur
8°C Dauwpunt
94% Vochtigheid



Wind
19 KM/U
12 MPH
5 M/S
10 KTS



310°
NW
Huidig weer

Lichte Buien, Regen Lichte Buien, Regen
Luchtdruk 999.92 (hPa) - 29.53 (inHg)
Zicht 6.2 (mijl) - 10 (km)
Vliegveld
Vliegveld code EBBR

Locatie : Brussels Airport
Afstand: 10 (km)

Metar:
EBBR 270120Z 31010KT 290V350 9999 -SHRA FEW012CB BKN040 09/08 Q1000 TEMPO 4000 SHRA

Tijd: 27-09-2022 03:20 CEST